Select Airport:
Chesapeake Regional Airport
Last updated: 18 minutes ago
Flight conditions: VFR
Visibility: 7.0 statute miles
Sky Conditions:
   Scattered clouds at 3100 feet
   Scattered clouds at 3800 feet
   Broken clouds at 5500 feet
Wind From: 290°
Wind speed: 7 knots (8.05 mph)
Temperature: 30.3°C (86.54°F)
Dew Point: 21.5°C (70.7°F)
Altimiter setting: 29.88 in-hg
WX phone: 1-757-204-4290
WX freq: 123.675 MHz
Runway 23
   Crosswind component: 6.06 knots (6.97 mph)
   Headwind component: 3.5 knots (4.03 mph)
KCPK 251515Z AUTO 29007KT 7SM SCT031 SCT038 BKN055 30/22 A2988 RMK AO2 T03030215
FOR REFERENCE USE ONLY, DATA MAY NOT BE CURRENT.
ALWAYS CHECK FOR UP TO DATE INFORMATION.